createdAt,value
2022-09-18T00:00:04.685Z,1006.6
2022-09-18T00:01:04.644Z,1006.6
2022-09-18T00:02:04.715Z,1006.6
2022-09-18T00:03:04.831Z,1006.6
2022-09-18T00:04:04.630Z,1006.6
2022-09-18T00:05:04.645Z,1006.5
2022-09-18T00:06:04.714Z,1006.6
2022-09-18T00:07:04.649Z,1006.6
2022-09-18T00:08:05.012Z,1006.6
2022-09-18T00:09:04.979Z,1006.6
2022-09-18T00:10:05.297Z,1006.5
2022-09-18T00:11:04.677Z,1006.6
2022-09-18T00:12:04.670Z,1006.5
2022-09-18T00:13:04.725Z,1006.6
2022-09-18T00:14:04.762Z,1006.6
2022-09-18T00:15:04.671Z,1006.5
2022-09-18T00:16:05.300Z,1006.5
2022-09-18T00:17:08.455Z,1006.5
2022-09-18T00:18:04.678Z,1006.6
2022-09-18T00:19:04.686Z,1006.6
2022-09-18T00:20:04.726Z,1006.5
2022-09-18T00:21:04.769Z,1006.6
2022-09-18T00:22:05.169Z,1006.5
2022-09-18T00:23:04.691Z,1006.5
2022-09-18T00:24:07.006Z,1006.5
2022-09-18T00:25:05.773Z,1006.5
2022-09-18T00:26:05.888Z,1006.5
2022-09-18T00:27:04.704Z,1006.5
2022-09-18T00:28:04.696Z,1006.5
2022-09-18T00:29:04.728Z,1006.5
2022-09-18T00:30:04.710Z,1006.5
2022-09-18T00:31:04.780Z,1006.6
2022-09-18T00:32:08.938Z,1006.6
2022-09-18T00:33:04.763Z,1006.5
2022-09-18T00:34:04.759Z,1006.6
2022-09-18T00:35:04.699Z,1006.6
2022-09-18T00:36:04.752Z,1006.6
2022-09-18T00:37:04.685Z,1006.6
2022-09-18T00:40:00.914Z,1006.5
2022-09-18T00:40:05.812Z,1006.5
2022-09-18T00:41:06.380Z,1006.5
2022-09-18T00:42:04.710Z,1006.5
2022-09-18T00:43:04.871Z,1006.5
2022-09-18T00:44:04.565Z,1006.5
2022-09-18T00:45:04.648Z,1006.5
2022-09-18T00:46:04.594Z,1006.5
2022-09-18T00:47:04.551Z,1006.5
2022-09-18T00:48:04.564Z,1006.5
2022-09-18T00:49:04.611Z,1006.5
2022-09-18T00:50:04.588Z,1006.5
2022-09-18T00:51:04.582Z,1006.4
2022-09-18T00:52:04.569Z,1006.5
2022-09-18T00:53:04.556Z,1006.5
2022-09-18T00:54:04.664Z,1006.5
2022-09-18T00:55:04.559Z,1006.5
2022-09-18T00:56:04.569Z,1006.5
2022-09-18T00:57:04.599Z,1006.5
2022-09-18T00:58:04.567Z,1006.5
2022-09-18T00:59:04.562Z,1006.5
2022-09-18T01:00:04.574Z,1006.5
2022-09-18T01:01:04.677Z,1006.5
2022-09-18T01:02:04.594Z,1006.4
2022-09-18T01:03:04.593Z,1006.5
2022-09-18T01:04:04.564Z,1006.5
2022-09-18T01:05:04.569Z,1006.5
2022-09-18T01:06:04.631Z,1006.5
2022-09-18T01:07:04.567Z,1006.5
2022-09-18T01:08:04.561Z,1006.5
2022-09-18T01:09:04.627Z,1006.5
2022-09-18T01:10:04.574Z,1006.5
2022-09-18T01:11:04.583Z,1006.5
2022-09-18T01:12:04.563Z,1006.5
2022-09-18T01:13:04.578Z,1006.5
2022-09-18T01:14:04.570Z,1006.5
2022-09-18T01:15:04.590Z,1006.5
2022-09-18T01:16:04.621Z,1006.5
2022-09-18T01:17:04.564Z,1006.5
2022-09-18T01:18:04.569Z,1006.5
2022-09-18T01:19:04.558Z,1006.5
2022-09-18T01:20:04.570Z,1006.4
2022-09-18T01:21:04.589Z,1006.4
2022-09-18T01:22:04.581Z,1006.5
2022-09-18T01:23:04.572Z,1006.5
2022-09-18T01:24:04.577Z,1006.5
2022-09-18T01:25:04.567Z,1006.5
2022-09-18T01:27:35.988Z,1006.5
2022-09-18T01:28:03.684Z,1006.5
2022-09-18T01:29:03.679Z,1006.5
2022-09-18T01:30:03.722Z,1006.5
2022-09-18T01:31:03.691Z,1006.5
2022-09-18T01:32:03.666Z,1006.5
2022-09-18T01:33:03.689Z,1006.5
2022-09-18T01:34:03.683Z,1006.5
2022-09-18T01:35:09.943Z,1006.5
2022-09-18T01:36:03.810Z,1006.5
2022-09-18T01:37:03.661Z,1006.5
2022-09-18T01:38:03.668Z,1006.5
2022-09-18T01:39:03.671Z,1006.5
2022-09-18T01:40:03.738Z,1006.5
2022-09-18T01:41:03.668Z,1006.5
2022-09-18T01:42:03.696Z,1006.5
2022-09-18T01:43:03.665Z,1006.5
2022-09-18T01:44:03.679Z,1006.5
2022-09-18T01:45:03.672Z,1006.5
2022-09-18T01:46:03.793Z,1006.5
2022-09-18T01:47:03.672Z,1006.5
2022-09-18T01:48:03.721Z,1006.5
2022-09-18T01:49:03.680Z,1006.5
2022-09-18T01:50:04.690Z,1006.6
2022-09-18T01:51:03.691Z,1006.5
2022-09-18T01:52:03.691Z,1006.5
2022-09-18T01:53:03.671Z,1006.5
2022-09-18T01:54:03.737Z,1006.5
2022-09-18T01:55:03.692Z,1006.5
2022-09-18T01:56:03.798Z,1006.5
2022-09-18T01:57:03.677Z,1006.5
2022-09-18T01:58:03.675Z,1006.5
2022-09-18T01:59:03.676Z,1006.5
2022-09-18T02:00:03.715Z,1006.5
2022-09-18T02:01:03.667Z,1006.5
2022-09-18T02:02:03.966Z,1006.5
2022-09-18T02:03:03.731Z,1006.5
2022-09-18T02:04:03.680Z,1006.5
2022-09-18T02:05:03.686Z,1006.5
2022-09-18T02:06:03.735Z,1006.4
2022-09-18T02:07:03.682Z,1006.4
2022-09-18T02:08:03.698Z,1006.4
2022-09-18T02:09:03.678Z,1006.5
2022-09-18T02:10:03.683Z,1006.5
2022-09-18T02:11:03.679Z,1006.5
2022-09-18T02:12:03.714Z,1006.5
2022-09-18T02:13:03.689Z,1006.5
2022-09-18T02:14:03.688Z,1006.5
2022-09-18T02:15:03.685Z,1006.5
2022-09-18T02:16:03.725Z,1006.5
2022-09-18T02:17:03.677Z,1006.5
2022-09-18T02:18:03.705Z,1006.5
2022-09-18T02:19:03.681Z,1006.5
2022-09-18T02:20:03.708Z,1006.5
2022-09-18T02:21:03.769Z,1006.5
2022-09-18T02:22:03.691Z,1006.5
2022-09-18T02:23:03.697Z,1006.4
2022-09-18T02:24:03.794Z,1006.4
2022-09-18T02:25:03.684Z,1006.4
2022-09-18T02:26:03.805Z,1006.4
2022-09-18T02:27:30.245Z,1006.4
2022-09-18T02:28:07.825Z,1006.4
2022-09-18T02:29:03.977Z,1006.4
2022-09-18T02:30:03.992Z,1006.4
2022-09-18T02:31:04.028Z,1006.3
2022-09-18T02:32:03.956Z,1006.4
2022-09-18T02:33:03.957Z,1006.3
2022-09-18T02:34:03.942Z,1006.3
2022-09-18T02:35:03.969Z,1006.3
2022-09-18T02:36:03.896Z,1006.4
2022-09-18T02:37:03.832Z,1006.4
2022-09-18T02:38:03.836Z,1006.4
2022-09-18T02:39:03.849Z,1006.4
2022-09-18T02:40:03.898Z,1006.4
2022-09-18T02:41:03.848Z,1006.4
2022-09-18T02:42:03.882Z,1006.4
2022-09-18T02:43:03.845Z,1006.4
2022-09-18T02:44:03.919Z,1006.4
2022-09-18T02:45:03.852Z,1006.4
2022-09-18T02:46:03.932Z,1006.4
2022-09-18T02:47:03.833Z,1006.3
2022-09-18T02:48:03.888Z,1006.4
2022-09-18T02:49:03.844Z,1006.4
2022-09-18T02:50:03.887Z,1006.4
2022-09-18T02:51:03.856Z,1006.4
2022-09-18T02:52:03.851Z,1006.3
2022-09-18T02:53:03.944Z,1006.4
2022-09-18T02:54:03.850Z,1006.3
2022-09-18T02:55:03.849Z,1006.4
2022-09-18T02:56:04.781Z,1006.4
2022-09-18T02:57:03.859Z,1006.4
2022-09-18T02:58:03.843Z,1006.4
2022-09-18T02:59:03.849Z,1006.4
2022-09-18T03:00:03.904Z,1006.4
2022-09-18T03:01:03.855Z,1006.5
2022-09-18T03:02:03.973Z,1006.5
2022-09-18T03:03:03.928Z,1006.5
2022-09-18T03:04:03.849Z,1006.5
2022-09-18T03:05:03.854Z,1006.5
2022-09-18T03:06:03.904Z,1006.5
2022-09-18T03:07:03.866Z,1006.4
2022-09-18T03:08:03.872Z,1006.4
2022-09-18T03:09:03.855Z,1006.4
2022-09-18T03:10:03.882Z,1006.4
2022-09-18T03:11:03.854Z,1006.3
2022-09-18T03:12:03.886Z,1006.3
2022-09-18T03:13:03.846Z,1006.3
2022-09-18T03:14:03.861Z,1006.3
2022-09-18T03:15:03.849Z,1006.3
2022-09-18T03:16:04.070Z,1006.4
2022-09-18T03:17:03.984Z,1006.3
2022-09-18T03:18:03.900Z,1006.4
2022-09-18T03:19:03.853Z,1006.3
2022-09-18T03:20:03.854Z,1006.3
2022-09-18T03:21:03.862Z,1006.3
2022-09-18T03:22:03.899Z,1006.3
2022-09-18T03:23:03.914Z,1006.4
2022-09-18T03:24:03.877Z,1006.4
2022-09-18T03:25:04.895Z,1006.4
2022-09-18T03:26:03.911Z,1006.3
2022-09-18T03:27:03.859Z,1006.3
2022-09-18T03:28:03.900Z,1006.3
2022-09-18T03:29:10.562Z,1006.3
2022-09-18T03:30:10.977Z,1006.3
2022-09-18T03:31:03.783Z,1006.3
2022-09-18T03:32:10.421Z,1006.3
2022-09-18T03:33:04.143Z,1006.3
2022-09-18T03:34:12.717Z,1006.3
2022-09-18T03:35:04.289Z,1006.2
2022-09-18T03:36:04.263Z,1006.3
2022-09-18T03:37:10.973Z,1006.2
2022-09-18T03:38:03.697Z,1006.3
2022-09-18T03:39:03.705Z,1006.3
2022-09-18T03:40:03.782Z,1006.3
2022-09-18T03:41:03.715Z,1006.3
2022-09-18T03:42:03.691Z,1006.3
2022-09-18T03:43:03.697Z,1006.3
2022-09-18T03:44:03.689Z,1006.3
2022-09-18T03:45:03.695Z,1006.3
2022-09-18T03:46:03.778Z,1006.3
2022-09-18T03:47:03.708Z,1006.3
2022-09-18T03:48:03.706Z,1006.3
2022-09-18T03:49:03.704Z,1006.3
2022-09-18T03:50:03.700Z,1006.3
2022-09-18T03:51:03.695Z,1006.3
2022-09-18T03:52:03.720Z,1006.3
2022-09-18T03:53:03.697Z,1006.3
2022-09-18T03:54:03.704Z,1006.3
2022-09-18T03:55:03.704Z,1006.3
2022-09-18T03:56:03.685Z,1006.3
2022-09-18T03:57:03.689Z,1006.3
2022-09-18T03:58:03.721Z,1006.3
2022-09-18T03:59:03.695Z,1006.2
2022-09-18T04:00:03.693Z,1006.3
2022-09-18T04:01:03.702Z,1006.3
2022-09-18T04:02:03.797Z,1006.2
2022-09-18T04:03:03.745Z,1006.2
2022-09-18T04:04:03.732Z,1006.3
2022-09-18T04:05:03.700Z,1006.2
2022-09-18T04:06:03.711Z,1006.3
2022-09-18T04:07:04.321Z,1006.2
2022-09-18T04:08:03.703Z,1006.2
2022-09-18T04:09:03.809Z,1006.2
2022-09-18T04:10:05.178Z,1006.2
2022-09-18T04:11:03.767Z,1006.2
2022-09-18T04:12:04.651Z,1006.3
2022-09-18T04:13:04.734Z,1006.3
2022-09-18T04:14:03.705Z,1006.2
2022-09-18T04:15:03.702Z,1006.3
2022-09-18T04:16:03.775Z,1006.2
2022-09-18T04:17:03.713Z,1006.2
2022-09-18T04:18:03.699Z,1006.2
2022-09-18T04:19:03.700Z,1006.2
2022-09-18T04:20:03.695Z,1006.2
2022-09-18T04:21:03.710Z,1006.3
2022-09-18T04:22:03.721Z,1006.3
2022-09-18T04:23:03.704Z,1006.3
2022-09-18T04:24:03.797Z,1006.3
2022-09-18T04:25:03.712Z,1006.3
2022-09-18T04:26:03.726Z,1006.3
2022-09-18T04:27:03.696Z,1006.3
2022-09-18T04:28:03.732Z,1006.3
2022-09-18T04:29:03.705Z,1006.3
2022-09-18T04:30:03.716Z,1006.4
2022-09-18T04:31:03.737Z,1006.4
2022-09-18T04:32:03.719Z,1006.4
2022-09-18T04:33:03.733Z,1006.3
2022-09-18T04:34:03.766Z,1006.3
2022-09-18T04:35:03.733Z,1006.3
2022-09-18T04:36:03.763Z,1006.3
2022-09-18T04:37:06.884Z,1006.3
2022-09-18T04:38:03.705Z,1006.3
2022-09-18T04:39:03.759Z,1006.3
2022-09-18T04:40:03.748Z,1006.3
2022-09-18T04:41:03.718Z,1006.3
2022-09-18T04:43:34.585Z,1006.2
2022-09-18T04:44:04.352Z,1006.2
2022-09-18T04:45:05.045Z,1006.2
2022-09-18T04:46:04.328Z,1006.2
2022-09-18T04:47:04.294Z,1006.2
2022-09-18T04:48:04.288Z,1006.2
2022-09-18T04:49:11.044Z,1006.2
2022-09-18T04:50:03.758Z,1006.3
2022-09-18T04:51:03.751Z,1006.3
2022-09-18T04:52:10.479Z,1006.2
2022-09-18T04:53:04.189Z,1006.3
2022-09-18T04:54:22.573Z,1006.2
2022-09-18T04:55:04.437Z,1006.2
2022-09-18T04:56:10.443Z,1006.2
2022-09-18T04:57:04.148Z,1006.3
2022-09-18T04:58:04.856Z,1006.3
2022-09-18T04:59:10.900Z,1006.2
2022-09-18T05:01:04.694Z,1006.2
2022-09-18T05:02:04.033Z,1006.2
2022-09-18T05:03:05.175Z,1006.3
2022-09-18T05:04:03.997Z,1006.3
2022-09-18T05:05:03.995Z,1006.3
2022-09-18T05:06:03.998Z,1006.3
2022-09-18T05:07:04.005Z,1006.3
2022-09-18T05:08:03.991Z,1006.4
2022-09-18T05:09:04.027Z,1006.4
2022-09-18T05:10:04.003Z,1006.4
2022-09-18T05:11:03.999Z,1006.4
2022-09-18T05:12:03.992Z,1006.4
2022-09-18T05:13:04.001Z,1006.4
2022-09-18T05:14:04.019Z,1006.4
2022-09-18T05:15:04.026Z,1006.4
2022-09-18T05:16:04.057Z,1006.4
2022-09-18T05:17:03.997Z,1006.4
2022-09-18T05:18:07.737Z,1006.4
2022-09-18T05:19:04.102Z,1006.5
2022-09-18T05:20:04.016Z,1006.5
2022-09-18T05:21:04.035Z,1006.5
2022-09-18T05:22:03.997Z,1006.5
2022-09-18T05:23:04.000Z,1006.5
2022-09-18T05:24:03.995Z,1006.5
2022-09-18T05:25:04.015Z,1006.5
2022-09-18T05:26:03.993Z,1006.5
2022-09-18T05:27:04.064Z,1006.5
2022-09-18T05:28:04.003Z,1006.5
2022-09-18T05:29:04.007Z,1006.5
2022-09-18T05:30:04.009Z,1006.5
2022-09-18T05:31:04.045Z,1006.5
2022-09-18T05:32:03.995Z,1006.5
2022-09-18T05:33:04.075Z,1006.5
2022-09-18T05:34:04.043Z,1006.5
2022-09-18T05:35:04.006Z,1006.5
2022-09-18T05:36:03.996Z,1006.5
2022-09-18T05:37:04.002Z,1006.5
2022-09-18T05:38:04.003Z,1006.5
2022-09-18T05:39:04.042Z,1006.5
2022-09-18T05:40:04.040Z,1006.5
2022-09-18T05:41:03.999Z,1006.5
2022-09-18T05:42:04.005Z,1006.5
2022-09-18T05:43:04.002Z,1006.5
2022-09-18T05:44:04.058Z,1006.5
2022-09-18T05:45:04.039Z,1006.5
2022-09-18T05:46:04.012Z,1006.5
2022-09-18T05:47:04.006Z,1006.5
2022-09-18T05:48:04.013Z,1006.5
2022-09-18T05:49:04.021Z,1006.5
2022-09-18T05:50:04.018Z,1006.5
2022-09-18T05:51:04.034Z,1006.6
2022-09-18T05:52:04.010Z,1006.6
2022-09-18T05:53:04.018Z,1006.5
2022-09-18T05:54:04.117Z,1006.6
2022-09-18T05:55:04.009Z,1006.6
2022-09-18T05:56:04.014Z,1006.6
2022-09-18T05:57:04.037Z,1006.6
2022-09-18T05:58:04.042Z,1006.6
2022-09-18T05:59:04.007Z,1006.6
2022-09-18T06:00:04.018Z,1006.6
2022-09-18T06:01:04.017Z,1006.6
2022-09-18T06:02:04.077Z,1006.5
2022-09-18T06:03:04.056Z,1006.6
2022-09-18T06:04:04.033Z,1006.6
2022-09-18T06:05:04.017Z,1006.6
2022-09-18T06:06:04.019Z,1006.6
2022-09-18T06:07:04.041Z,1006.6
2022-09-18T06:08:04.025Z,1006.6
2022-09-18T06:09:04.100Z,1006.6
2022-09-18T06:10:04.070Z,1006.7
2022-09-18T06:11:04.028Z,1006.6
2022-09-18T06:12:44.977Z,1006.6
2022-09-18T06:13:04.003Z,1006.6
2022-09-18T06:14:04.011Z,1006.6
2022-09-18T06:15:04.016Z,1006.7
2022-09-18T06:16:04.099Z,1006.6
2022-09-18T06:17:04.028Z,1006.6
2022-09-18T06:18:04.033Z,1006.7
2022-09-18T06:19:04.007Z,1006.6
2022-09-18T06:20:04.016Z,1006.7
2022-09-18T06:21:04.017Z,1006.6
2022-09-18T06:22:04.100Z,1006.6
2022-09-18T06:23:04.031Z,1006.6
2022-09-18T06:24:04.068Z,1006.6
2022-09-18T06:25:04.019Z,1006.6
2022-09-18T06:26:04.032Z,1006.6
2022-09-18T06:27:04.027Z,1006.6
2022-09-18T06:28:06.100Z,1006.6
2022-09-18T06:29:04.069Z,1006.6
2022-09-18T06:30:04.012Z,1006.6
2022-09-18T06:31:04.055Z,1006.6
2022-09-18T06:32:04.030Z,1006.6
2022-09-18T06:33:04.042Z,1006.6
2022-09-18T06:34:04.089Z,1006.6
2022-09-18T06:35:04.023Z,1006.6
2022-09-18T06:36:04.015Z,1006.6
2022-09-18T06:37:04.056Z,1006.6
2022-09-18T06:38:04.030Z,1006.6
2022-09-18T06:39:04.102Z,1006.6
2022-09-18T06:40:04.147Z,1006.6
2022-09-18T06:41:04.021Z,1006.6
2022-09-18T06:42:04.028Z,1006.7
2022-09-18T06:43:04.032Z,1006.7
2022-09-18T06:44:04.025Z,1006.7
2022-09-18T06:45:04.013Z,1006.7
2022-09-18T06:46:04.060Z,1006.7
2022-09-18T06:47:04.047Z,1006.8
2022-09-18T06:48:04.034Z,1006.8
2022-09-18T06:49:04.028Z,1006.7
2022-09-18T06:50:04.027Z,1006.7
2022-09-18T06:51:04.020Z,1006.7
2022-09-18T06:52:04.063Z,1006.7
2022-09-18T06:53:05.919Z,1006.8
2022-09-18T06:54:04.132Z,1006.7
2022-09-18T06:55:04.024Z,1006.8
2022-09-18T06:56:04.026Z,1006.8
2022-09-18T06:57:04.023Z,1006.8
2022-09-18T06:58:04.066Z,1006.8
2022-09-18T06:59:04.057Z,1006.8
2022-09-18T07:00:05.096Z,1006.8
2022-09-18T07:01:04.111Z,1006.9
2022-09-18T07:02:04.086Z,1006.8
2022-09-18T07:03:04.078Z,1006.8
2022-09-18T07:04:04.079Z,1006.8
2022-09-18T07:05:04.028Z,1006.8
2022-09-18T07:07:54.279Z,1006.8
2022-09-18T07:08:04.226Z,1006.8
2022-09-18T07:09:04.076Z,1006.8
2022-09-18T07:10:08.337Z,1006.8
2022-09-18T07:11:04.012Z,1006.8
2022-09-18T07:12:03.989Z,1006.9
2022-09-18T07:13:03.999Z,1006.8
2022-09-18T07:14:04.011Z,1006.8
2022-09-18T07:15:04.013Z,1006.8
2022-09-18T07:16:04.048Z,1006.8
2022-09-18T07:17:04.022Z,1006.9
2022-09-18T07:18:04.000Z,1006.8
2022-09-18T07:19:04.001Z,1006.9
2022-09-18T07:20:04.010Z,1006.8
2022-09-18T07:21:04.018Z,1006.9
2022-09-18T07:22:04.022Z,1006.9
2022-09-18T07:23:03.997Z,1006.9
2022-09-18T07:24:04.110Z,1006.9
2022-09-18T07:25:04.992Z,1006.9
2022-09-18T07:26:04.048Z,1006.9
2022-09-18T07:27:04.035Z,1007.0
2022-09-18T07:28:04.031Z,1006.9
2022-09-18T07:29:06.912Z,1007.0
2022-09-18T07:30:04.067Z,1006.9
2022-09-18T07:31:04.053Z,1006.9
2022-09-18T07:32:04.021Z,1006.9
2022-09-18T07:33:04.175Z,1006.9
2022-09-18T07:34:04.004Z,1006.9
2022-09-18T07:35:04.091Z,1006.9
2022-09-18T07:36:04.152Z,1006.9
2022-09-18T07:37:04.901Z,1006.9
2022-09-18T07:38:04.005Z,1006.9
2022-09-18T07:39:04.024Z,1006.9
2022-09-18T07:40:04.042Z,1006.9
2022-09-18T07:41:04.007Z,1006.9
2022-09-18T07:42:08.737Z,1006.9
2022-09-18T07:43:04.001Z,1006.9
2022-09-18T07:44:03.999Z,1006.9
2022-09-18T07:45:04.021Z,1006.9
2022-09-18T07:46:04.008Z,1006.9
2022-09-18T07:47:04.018Z,1006.9
2022-09-18T07:48:04.031Z,1006.8
2022-09-18T07:49:04.005Z,1006.8
2022-09-18T07:50:04.042Z,1006.8
2022-09-18T07:51:04.013Z,1006.9
2022-09-18T07:52:04.150Z,1006.8
2022-09-18T07:53:04.921Z,1006.9
2022-09-18T07:54:04.123Z,1006.9
2022-09-18T07:55:04.080Z,1006.9
2022-09-18T07:56:04.053Z,1006.9
2022-09-18T07:57:04.087Z,1006.9
2022-09-18T07:58:04.008Z,1006.9
2022-09-18T07:59:04.006Z,1006.9
2022-09-18T08:00:04.099Z,1006.9
2022-09-18T08:01:04.080Z,1006.9
2022-09-18T08:02:04.218Z,1006.9
2022-09-18T08:03:04.088Z,1006.9
2022-09-18T08:04:04.000Z,1006.9
2022-09-18T08:05:04.021Z,1006.9
2022-09-18T08:06:05.080Z,1006.9
2022-09-18T08:07:04.031Z,1006.9
2022-09-18T08:08:04.107Z,1006.9
2022-09-18T08:09:04.094Z,1007.0
2022-09-18T08:10:04.056Z,1007.0
2022-09-18T08:11:04.052Z,1007.0
2022-09-18T08:12:04.097Z,1007.0
2022-09-18T08:13:04.022Z,1007.0
2022-09-18T08:14:04.042Z,1007.0
2022-09-18T08:15:04.037Z,1007.0
2022-09-18T08:16:04.108Z,1007.0
2022-09-18T08:17:04.029Z,1007.0
2022-09-18T08:18:04.042Z,1007.0
2022-09-18T08:19:04.019Z,1007.0
2022-09-18T08:20:04.038Z,1007.0
2022-09-18T08:21:06.266Z,1007.0
2022-09-18T08:22:04.046Z,1007.0
2022-09-18T08:23:04.023Z,1007.0
2022-09-18T08:25:54.150Z,1007.0
2022-09-18T08:26:04.094Z,1007.0
2022-09-18T08:27:03.874Z,1007.0
2022-09-18T08:28:03.854Z,1007.0
2022-09-18T08:29:03.881Z,1007.0
2022-09-18T08:30:04.444Z,1006.9
2022-09-18T08:31:03.915Z,1006.9
2022-09-18T08:32:09.033Z,1006.9
2022-09-18T08:33:03.894Z,1006.9
2022-09-18T08:34:03.859Z,1006.9
2022-09-18T08:35:04.796Z,1006.9
2022-09-18T08:36:03.903Z,1006.9
2022-09-18T08:37:03.884Z,1006.9
2022-09-18T08:38:03.859Z,1006.9
2022-09-18T08:39:03.936Z,1006.9
2022-09-18T08:40:04.061Z,1006.9
2022-09-18T08:41:03.874Z,1007.0
2022-09-18T08:42:03.930Z,1006.9
2022-09-18T08:43:03.924Z,1006.9
2022-09-18T08:44:03.897Z,1006.9
2022-09-18T08:45:03.897Z,1006.9
2022-09-18T08:46:03.881Z,1007.0
2022-09-18T08:47:03.933Z,1007.0
2022-09-18T08:48:03.887Z,1007.0
2022-09-18T08:49:03.870Z,1007.0
2022-09-18T08:50:03.960Z,1007.0
2022-09-18T08:51:03.880Z,1006.9
2022-09-18T08:52:03.944Z,1006.9
2022-09-18T08:53:03.875Z,1006.9
2022-09-18T08:54:03.955Z,1006.9
2022-09-18T08:55:03.867Z,1006.9
2022-09-18T08:56:03.874Z,1006.9
2022-09-18T08:57:03.881Z,1006.9
2022-09-18T08:58:03.870Z,1006.9
2022-09-18T08:59:03.921Z,1006.9
2022-09-18T09:00:03.916Z,1006.9
2022-09-18T09:01:03.962Z,1007.0
2022-09-18T09:02:03.907Z,1007.0
2022-09-18T09:03:03.918Z,1007.0
2022-09-18T09:04:03.875Z,1007.0
2022-09-18T09:05:03.875Z,1007.0
2022-09-18T09:06:03.943Z,1007.0
2022-09-18T09:07:03.882Z,1007.0
2022-09-18T09:08:03.889Z,1007.0
2022-09-18T09:09:03.945Z,1007.0
2022-09-18T09:10:03.879Z,1007.0
2022-09-18T09:11:03.874Z,1007.0
2022-09-18T09:12:03.916Z,1007.0
2022-09-18T09:13:03.887Z,1007.0
2022-09-18T09:14:03.893Z,1007.0
2022-09-18T09:15:03.886Z,1007.0
2022-09-18T09:16:04.015Z,1007.0
2022-09-18T09:17:03.963Z,1007.0
2022-09-18T09:18:03.944Z,1007.0
2022-09-18T09:19:03.893Z,1007.0
2022-09-18T09:20:03.868Z,1007.0
2022-09-18T09:21:04.725Z,1007.0
2022-09-18T09:22:03.894Z,1006.9
2022-09-18T09:23:03.889Z,1007.0
2022-09-18T09:24:03.962Z,1006.9
2022-09-18T09:25:03.938Z,1006.9
2022-09-18T09:26:03.872Z,1007.0
2022-09-18T09:27:03.881Z,1006.9
2022-09-18T09:29:35.030Z,1007.0
2022-09-18T09:30:04.585Z,1007.0
2022-09-18T09:31:04.641Z,1006.9
2022-09-18T09:32:04.588Z,1007.0
2022-09-18T09:33:04.589Z,1007.0
2022-09-18T09:34:04.581Z,1007.0
2022-09-18T09:35:04.614Z,1007.0
2022-09-18T09:36:04.592Z,1006.9
2022-09-18T09:37:04.597Z,1006.9
2022-09-18T09:38:04.703Z,1006.9
2022-09-18T09:39:04.613Z,1006.9
2022-09-18T09:40:04.607Z,1006.9
2022-09-18T09:41:04.656Z,1006.9
2022-09-18T09:42:04.592Z,1006.9
2022-09-18T09:43:04.618Z,1006.9
2022-09-18T09:44:04.598Z,1006.9
2022-09-18T09:45:04.595Z,1006.9
2022-09-18T09:46:04.594Z,1006.9
2022-09-18T09:47:04.702Z,1006.9
2022-09-18T09:48:04.590Z,1006.9
2022-09-18T09:49:04.593Z,1006.9
2022-09-18T09:50:04.587Z,1007.0
2022-09-18T09:51:04.599Z,1006.9
2022-09-18T09:52:08.927Z,1006.9
2022-09-18T09:53:04.636Z,1006.9
2022-09-18T09:54:04.599Z,1006.9
2022-09-18T09:55:04.599Z,1006.8
2022-09-18T09:56:04.592Z,1006.8
2022-09-18T09:57:04.597Z,1006.9
2022-09-18T09:58:04.594Z,1006.8
2022-09-18T09:59:08.330Z,1006.7
2022-09-18T10:00:04.598Z,1006.8
2022-09-18T10:01:05.970Z,1006.8
2022-09-18T10:02:04.694Z,1006.7
2022-09-18T10:03:04.739Z,1006.7
2022-09-18T10:04:04.727Z,1006.7
2022-09-18T10:05:04.813Z,1006.7
2022-09-18T10:06:05.673Z,1006.7
2022-09-18T10:07:04.759Z,1006.7
2022-09-18T10:08:04.992Z,1006.6
2022-09-18T10:09:05.861Z,1006.7
2022-09-18T10:10:05.086Z,1006.7
2022-09-18T10:11:04.816Z,1006.7
2022-09-18T10:12:04.843Z,1006.7
2022-09-18T10:13:04.742Z,1006.8
2022-09-18T10:14:04.607Z,1006.8
2022-09-18T10:15:04.643Z,1006.8
2022-09-18T10:16:04.863Z,1006.8
2022-09-18T10:17:04.628Z,1006.7
2022-09-18T10:19:54.681Z,1006.8
2022-09-18T10:20:04.650Z,1006.7
2022-09-18T10:21:05.119Z,1006.7
2022-09-18T10:22:04.444Z,1006.7
2022-09-18T10:23:04.434Z,1006.7
2022-09-18T10:24:04.473Z,1006.8
2022-09-18T10:25:04.489Z,1006.7
2022-09-18T10:26:04.421Z,1006.7
2022-09-18T10:27:04.424Z,1006.7
2022-09-18T10:28:04.425Z,1006.7
2022-09-18T10:29:04.444Z,1006.7
2022-09-18T10:30:04.409Z,1006.7
2022-09-18T10:31:04.520Z,1006.7
2022-09-18T10:32:04.436Z,1006.7
2022-09-18T10:33:04.423Z,1006.7
2022-09-18T10:34:04.418Z,1006.7
2022-09-18T10:35:04.479Z,1006.7
2022-09-18T10:36:04.411Z,1006.7
2022-09-18T10:37:04.412Z,1006.7
2022-09-18T10:38:04.408Z,1006.7
2022-09-18T10:39:04.480Z,1006.7
2022-09-18T10:40:04.443Z,1006.6
2022-09-18T10:41:04.499Z,1006.8
2022-09-18T10:42:05.511Z,1006.7
2022-09-18T10:43:04.462Z,1006.7
2022-09-18T10:44:04.406Z,1006.7
2022-09-18T10:45:04.432Z,1006.6
2022-09-18T10:46:04.411Z,1006.7
2022-09-18T10:47:04.550Z,1006.6
2022-09-18T10:48:04.422Z,1006.6
2022-09-18T10:49:04.414Z,1006.6
2022-09-18T10:50:04.422Z,1006.7
2022-09-18T10:51:04.417Z,1006.7
2022-09-18T10:52:04.529Z,1006.7
2022-09-18T10:53:04.505Z,1006.6
2022-09-18T10:54:04.413Z,1006.7
2022-09-18T10:55:04.411Z,1006.7
2022-09-18T10:56:04.418Z,1006.8
2022-09-18T10:57:04.480Z,1006.7
2022-09-18T10:58:04.430Z,1006.6
2022-09-18T10:59:04.448Z,1006.7
2022-09-18T11:00:04.536Z,1006.6
2022-09-18T11:01:04.513Z,1006.6
2022-09-18T11:02:04.461Z,1006.6
2022-09-18T11:03:04.423Z,1006.7
2022-09-18T11:04:04.416Z,1006.5
2022-09-18T11:05:04.458Z,1006.5
2022-09-18T11:06:04.434Z,1006.6
2022-09-18T11:08:45.435Z,1006.5
2022-09-18T11:08:49.439Z,1006.5
2022-09-18T11:09:04.432Z,1006.5
2022-09-18T11:10:04.429Z,1006.5
2022-09-18T11:11:04.470Z,1006.5
2022-09-18T11:12:04.460Z,1006.5
2022-09-18T11:13:04.429Z,1006.6
2022-09-18T11:14:04.447Z,1006.6
2022-09-18T11:15:04.439Z,1006.6
2022-09-18T11:16:04.482Z,1006.6
2022-09-18T11:17:04.468Z,1006.6
2022-09-18T11:18:04.427Z,1006.6
2022-09-18T11:19:07.327Z,1006.6
2022-09-18T11:20:04.487Z,1006.5
2022-09-18T11:21:04.470Z,1006.5
2022-09-18T11:22:04.468Z,1006.6
2022-09-18T11:23:04.458Z,1006.5
2022-09-18T11:24:04.442Z,1006.5
2022-09-18T11:25:04.439Z,1006.4
2022-09-18T11:26:04.434Z,1006.4
2022-09-18T11:27:04.443Z,1006.4
2022-09-18T11:28:04.429Z,1006.4
2022-09-18T11:29:04.471Z,1006.4
2022-09-18T11:30:04.442Z,1006.3
2022-09-18T11:31:04.506Z,1006.3
2022-09-18T11:32:04.583Z,1006.3
2022-09-18T11:33:04.435Z,1006.3
2022-09-18T11:34:06.389Z,1006.3
2022-09-18T11:35:05.018Z,1006.3
2022-09-18T11:36:04.432Z,1006.3
2022-09-18T11:37:04.447Z,1006.3
2022-09-18T11:38:04.428Z,1006.3
2022-09-18T11:39:11.214Z,1006.3
2022-09-18T11:40:03.950Z,1006.3
2022-09-18T11:41:12.371Z,1006.2
2022-09-18T11:42:04.398Z,1006.3
2022-09-18T11:43:04.335Z,1006.2
2022-09-18T11:44:04.340Z,1006.2
2022-09-18T11:45:05.009Z,1006.2
2022-09-18T11:46:04.341Z,1006.2
2022-09-18T11:47:04.486Z,1006.2
2022-09-18T11:48:04.412Z,1006.2
2022-09-18T11:49:04.845Z,1006.2
2022-09-18T11:50:04.372Z,1006.2
2022-09-18T11:51:04.354Z,1006.2
2022-09-18T11:52:04.588Z,1006.2
2022-09-18T11:53:05.448Z,1006.2
2022-09-18T11:54:04.502Z,1006.2
2022-09-18T11:55:04.491Z,1006.2
2022-09-18T11:56:04.487Z,1006.2
2022-09-18T11:57:04.469Z,1006.1
2022-09-18T11:58:04.501Z,1006.1
2022-09-18T11:59:04.448Z,1006.2
2022-09-18T12:00:04.764Z,1006.1
2022-09-18T12:01:05.881Z,1006.1
2022-09-18T12:02:05.374Z,1006.1
2022-09-18T12:03:04.520Z,1006.1
2022-09-18T12:04:04.479Z,1006.0
2022-09-18T12:05:04.457Z,1006.0
2022-09-18T12:06:04.536Z,1006.1
2022-09-18T12:07:05.892Z,1006.1
2022-09-18T12:08:03.072Z,1006.1
2022-09-18T12:09:03.055Z,1006.1
2022-09-18T12:10:03.457Z,1006.0
2022-09-18T12:11:04.142Z,1006.0
2022-09-18T12:12:03.493Z,1006.0
2022-09-18T12:13:03.235Z,1006.0
2022-09-18T12:14:04.685Z,1006.0
2022-09-18T12:15:03.159Z,1006.0
2022-09-18T12:16:03.159Z,1006.0
2022-09-18T12:17:03.695Z,1006.0
2022-09-18T12:18:03.171Z,1006.0
2022-09-18T12:19:03.429Z,1006.0
2022-09-18T12:20:03.429Z,1006.0
2022-09-18T12:21:03.171Z,1006.0
2022-09-18T12:22:03.101Z,1006.0
2022-09-18T12:23:03.385Z,1006.0
2022-09-18T12:24:04.083Z,1006.0
2022-09-18T12:25:03.197Z,1006.0
2022-09-18T12:27:37.506Z,1006.0
2022-09-18T12:28:03.250Z,1005.9
2022-09-18T12:29:03.286Z,1005.9
2022-09-18T12:30:03.426Z,1005.9
2022-09-18T12:31:04.655Z,1005.9
2022-09-18T12:32:03.506Z,1005.9
2022-09-18T12:33:03.500Z,1005.9
2022-09-18T12:34:04.229Z,1005.9
2022-09-18T12:35:03.813Z,1005.9
2022-09-18T12:36:03.232Z,1005.8
2022-09-18T12:37:04.222Z,1005.8